Time;durP1;ratioP1;P1;durP2;ratioP2;P2;SDS_P1;SDS_P2;PMS_P1;PMS_P2;Temp;Humidity;BMP_temperature;BMP_pressure;BME280_temperature;BME280_humidity;BME280_pressure;Samples;Min_cycle;Max_cycle;Signal;HPM_P1;HPM_P2
2023/08/20 00:01:52;;;;;;;14.10;9.48;;;20.70;99.90;;;;;;4081358;29;20052;-63
2023/08/20 00:03:53;;;;;;;11.30;8.10;;;20.70;99.90;;;;;;4081034;29;20099;-61
2023/08/20 00:05:55;;;;;;;11.98;9.38;;;20.70;99.90;;;;;;4081373;29;20047;-62
2023/08/20 00:07:56;;;;;;;9.35;8.45;;;20.50;99.90;;;;;;4076497;29;20032;-60
2023/08/20 00:09:58;;;;;;;8.98;8.07;;;20.60;99.90;;;;;;4066216;29;20542;-60
2023/08/20 00:11:59;;;;;;;8.88;7.13;;;20.60;99.90;;;;;;4065185;29;20040;-61
2023/08/20 00:14:00;;;;;;;8.65;7.22;;;20.70;99.90;;;;;;4067081;29;20087;-60
2023/08/20 00:16:02;;;;;;;10.07;7.57;;;20.70;99.90;;;;;;4064940;29;20082;-60
2023/08/20 00:18:03;;;;;;;7.82;7.13;;;20.70;99.90;;;;;;4064716;29;20133;-62
2023/08/20 00:20:12;;;;;;;8.80;7.00;;;20.80;99.90;;;;;;4065583;29;20024;-61
2023/08/20 00:22:15;;;;;;;8.32;7.55;;;20.90;99.90;;;;;;4079910;29;20052;-62
2023/08/20 00:24:16;;;;;;;7.60;6.90;;;20.90;99.90;;;;;;4078497;29;20028;-61
2023/08/20 00:26:17;;;;;;;10.02;7.15;;;21.00;99.90;;;;;;4076045;29;20386;-62
2023/08/20 00:28:21;;;;;;;6.95;6.35;;;21.00;99.90;;;;;;4065249;29;20036;-61
2023/08/20 00:30:23;;;;;;;6.57;6.00;;;21.10;99.90;;;;;;4065384;29;20099;-61
2023/08/20 00:32:24;;;;;;;7.57;6.88;;;21.10;99.90;;;;;;4065001;29;20100;-61
2023/08/20 00:34:25;;;;;;;7.18;6.45;;;21.10;99.90;;;;;;4068037;29;20722;-61
2023/08/20 00:36:26;;;;;;;8.02;6.47;;;21.20;99.90;;;;;;4077710;29;20032;-61
2023/08/20 00:38:27;;;;;;;8.45;7.65;;;21.20;99.90;;;;;;4080300;29;20071;-61
2023/08/20 00:40:30;;;;;;;10.32;8.48;;;21.10;99.90;;;;;;4081075;29;20044;-62
2023/08/20 00:42:31;;;;;;;8.65;7.50;;;21.00;99.90;;;;;;4080032;29;20087;-61
2023/08/20 00:44:32;;;;;;;8.85;7.70;;;21.00;99.90;;;;;;4081332;29;20389;-59
2023/08/20 00:46:33;;;;;;;12.10;8.02;;;20.90;99.90;;;;;;4079559;29;20059;-61
2023/08/20 00:48:34;;;;;;;8.65;7.72;;;20.90;99.90;;;;;;4080984;29;20489;-62
2023/08/20 00:50:36;;;;;;;11.23;8.23;;;20.80;99.90;;;;;;4080449;29;20635;-62
2023/08/20 00:52:37;;;;;;;11.30;8.18;;;20.80;99.90;;;;;;4081369;29;20043;-62
2023/08/20 00:54:40;;;;;;;9.68;8.02;;;20.70;99.90;;;;;;4079416;29;20182;-61
2023/08/20 00:56:41;;;;;;;10.80;7.85;;;20.70;99.90;;;;;;4080892;29;20652;-62
2023/08/20 00:58:44;;;;;;;11.77;9.98;;;20.50;99.90;;;;;;4079680;29;20047;-61
2023/08/20 01:00:45;;;;;;;14.75;11.95;;;20.40;99.90;;;;;;4079057;29;20067;-63
2023/08/20 01:02:46;;;;;;;16.63;11.63;;;20.40;99.90;;;;;;4080341;29;20437;-62
2023/08/20 01:04:48;;;;;;;14.48;12.15;;;20.30;99.90;;;;;;4079799;29;20032;-62
2023/08/20 01:06:55;;;;;;;10.40;9.40;;;20.30;99.90;;;;;;4069128;29;20170;-62
2023/08/20 01:09:19;;;;;;;12.80;8.95;;;20.30;99.90;;;;;;4065573;29;20043;-62
2023/08/20 01:11:39;;;;;;;10.23;8.63;;;20.30;99.90;;;;;;4070985;29;20852;-59
2023/08/20 01:13:40;;;;;;;12.18;8.88;;;20.30;99.90;;;;;;4064865;29;20127;-61
2023/08/20 01:15:41;;;;;;;12.40;8.07;;;20.40;99.90;;;;;;4064610;29;20099;-61
2023/08/20 01:17:43;;;;;;;10.43;9.30;;;20.40;99.90;;;;;;4065656;29;20036;-62
2023/08/20 01:19:46;;;;;;;12.45;8.73;;;20.30;99.90;;;;;;4067118;29;20079;-60
2023/08/20 01:22:11;;;;;;;10.63;9.05;;;20.30;99.90;;;;;;4078030;29;20032;-59
2023/08/20 01:24:18;;;;;;;12.70;7.07;;;20.30;99.90;;;;;;4079054;29;20342;-61
2023/08/20 01:26:52;;;;;;;9.90;6.78;;;20.20;99.90;;;;;;4074860;29;20099;-58
2023/08/20 01:28:54;;;;;;;11.68;7.63;;;20.10;99.90;;;;;;4072993;29;20453;-61
2023/08/20 01:31:03;;;;;;;11.20;7.47;;;20.00;99.90;;;;;;4064497;29;20044;-61
2023/08/20 01:33:05;;;;;;;8.32;7.30;;;20.00;99.90;;;;;;4064189;29;20116;-61
2023/08/20 01:35:07;;;;;;;7.70;6.93;;;19.90;99.90;;;;;;4064166;29;20441;-61
2023/08/20 01:37:08;;;;;;;10.02;7.50;;;19.90;99.90;;;;;;4066328;29;20027;-61
2023/08/20 01:39:09;;;;;;;9.38;7.43;;;19.90;99.90;;;;;;4073713;29;20095;-58
2023/08/20 01:41:10;;;;;;;9.93;7.68;;;19.90;99.90;;;;;;4065622;29;20452;-59
2023/08/20 01:43:12;;;;;;;8.77;7.47;;;19.90;99.90;;;;;;4076236;29;20028;-59
2023/08/20 01:45:13;;;;;;;8.40;7.60;;;19.90;99.90;;;;;;4078516;29;20409;-61
2023/08/20 01:47:14;;;;;;;8.95;8.05;;;19.90;99.90;;;;;;4066685;29;20546;-61
2023/08/20 01:49:15;;;;;;;10.15;8.40;;;19.90;99.90;;;;;;4066236;29;20094;-60
2023/08/20 01:51:16;;;;;;;8.45;7.65;;;19.80;99.90;;;;;;4067548;29;20048;-60
2023/08/20 01:53:17;;;;;;;8.80;7.90;;;19.70;99.90;;;;;;4078521;29;20382;-60
2023/08/20 01:55:18;;;;;;;8.23;7.22;;;19.80;99.90;;;;;;4079383;29;20036;-60
2023/08/20 01:57:19;;;;;;;8.50;7.70;;;19.80;99.90;;;;;;4080610;29;20084;-61
2023/08/20 01:59:23;;;;;;;8.90;7.72;;;19.80;99.90;;;;;;4078719;29;20135;-60
2023/08/20 02:01:25;;;;;;;9.57;8.48;;;19.80;99.90;;;;;;4079904;29;20075;-59
2023/08/20 02:03:26;;;;;;;10.15;7.90;;;19.90;99.90;;;;;;4079161;29;20020;-60
2023/08/20 02:05:27;;;;;;;14.98;8.40;;;19.90;99.90;;;;;;4079612;29;20429;-60
2023/08/20 02:07:28;;;;;;;8.10;7.25;;;19.90;99.90;;;;;;4063831;29;20056;-61
2023/08/20 02:09:29;;;;;;;9.27;8.20;;;19.90;99.90;;;;;;4074413;29;20402;-59
2023/08/20 02:11:32;;;;;;;8.88;7.68;;;19.90;99.90;;;;;;4064197;29;20090;-60
2023/08/20 02:13:34;;;;;;;8.48;7.68;;;19.90;99.90;;;;;;4069083;29;20119;-60
2023/08/20 02:15:35;;;;;;;10.45;7.90;;;19.90;99.90;;;;;;4064608;29;20072;-60
2023/08/20 02:17:36;;;;;;;8.68;7.75;;;19.90;99.90;;;;;;4063590;29;20437;-61
2023/08/20 02:19:37;;;;;;;9.07;8.25;;;19.90;99.90;;;;;;4065040;29;20093;-60
2023/08/20 02:21:38;;;;;;;11.93;8.00;;;19.80;99.90;;;;;;4063625;29;20643;-61
2023/08/20 02:23:39;;;;;;;12.48;7.93;;;19.80;99.90;;;;;;4071920;29;20580;-61
2023/08/20 02:25:40;;;;;;;9.95;7.80;;;19.90;99.90;;;;;;4071344;29;20087;-59
2023/08/20 02:27:41;;;;;;;10.80;9.23;;;19.80;99.90;;;;;;4079986;29;20049;-61
2023/08/20 02:29:42;;;;;;;10.20;7.90;;;19.80;99.90;;;;;;4077078;29;20429;-61
2023/08/20 02:31:44;;;;;;;12.68;8.80;;;19.70;99.90;;;;;;4072169;29;20032;-61
2023/08/20 02:33:45;;;;;;;9.02;7.65;;;19.60;99.90;;;;;;4064069;29;20095;-61
2023/08/20 02:35:46;;;;;;;10.20;8.00;;;19.60;99.90;;;;;;4065174;29;20398;-62
2023/08/20 02:37:47;;;;;;;10.40;8.20;;;19.60;99.90;;;;;;4063693;29;20028;-61
2023/08/20 02:39:48;;;;;;;8.52;7.53;;;19.60;99.90;;;;;;4071355;29;20493;-62
2023/08/20 02:41:49;;;;;;;9.18;8.07;;;19.50;99.90;;;;;;4079679;29;20087;-61
2023/08/20 02:43:50;;;;;;;9.77;8.70;;;19.50;99.90;;;;;;4068882;29;20445;-60
2023/08/20 02:45:51;;;;;;;8.82;7.95;;;19.40;99.90;;;;;;4079179;29;20492;-62
2023/08/20 02:47:52;;;;;;;9.05;7.90;;;19.40;99.90;;;;;;4075201;29;20032;-61
2023/08/20 02:49:54;;;;;;;9.05;8.13;;;19.30;99.90;;;;;;4064861;29;20092;-61
2023/08/20 02:51:55;;;;;;;9.32;7.88;;;19.40;99.90;;;;;;4063499;29;20171;-62
2023/08/20 02:53:56;;;;;;;8.52;7.68;;;19.40;99.90;;;;;;4064475;29;20754;-62
2023/08/20 02:55:57;;;;;;;9.60;7.70;;;19.40;99.90;;;;;;4063259;29;20032;-58
2023/08/20 02:57:58;;;;;;;10.50;8.25;;;19.40;99.90;;;;;;4064414;29;20091;-62
2023/08/20 03:00:00;;;;;;;14.95;8.80;;;19.40;99.90;;;;;;4063028;29;20048;-63
2023/08/20 03:02:03;;;;;;;8.60;7.60;;;19.40;99.90;;;;;;4064627;29;20091;-62
2023/08/20 03:04:04;;;;;;;13.93;8.13;;;19.30;99.90;;;;;;4066955;29;20051;-62
2023/08/20 03:06:06;;;;;;;10.30;7.75;;;19.30;99.90;;;;;;4074329;29;20107;-60
2023/08/20 03:08:07;;;;;;;9.60;8.48;;;19.30;99.90;;;;;;4070467;29;20051;-62
2023/08/20 03:10:08;;;;;;;13.30;7.35;;;19.30;99.90;;;;;;4066783;29;20091;-62
2023/08/20 03:12:09;;;;;;;8.63;7.10;;;19.30;99.90;;;;;;4066128;29;20374;-60
2023/08/20 03:14:11;;;;;;;10.75;7.40;;;19.40;99.90;;;;;;4066313;29;20032;-61
2023/08/20 03:16:12;;;;;;;8.93;8.00;;;19.40;99.90;;;;;;4066698;29;20135;-61
2023/08/20 03:18:13;;;;;;;8.18;7.05;;;19.30;99.90;;;;;;4064530;29;20401;-62
2023/08/20 03:20:14;;;;;;;8.80;7.65;;;19.30;99.90;;;;;;4067291;29;20489;-62
2023/08/20 03:22:15;;;;;;;9.07;7.68;;;19.30;99.90;;;;;;4065712;29;20116;-61
2023/08/20 03:24:16;;;;;;;11.10;7.35;;;19.30;99.90;;;;;;4075673;29;20111;-62
2023/08/20 03:26:17;;;;;;;11.07;8.07;;;19.30;99.90;;;;;;4081415;29;20043;-62
2023/08/20 03:28:19;;;;;;;8.35;7.53;;;19.30;99.90;;;;;;4082335;29;20031;-61
2023/08/20 03:30:20;;;;;;;7.15;6.45;;;19.30;99.90;;;;;;4081598;29;20035;-62
2023/08/20 03:32:23;;;;;;;7.65;6.95;;;19.30;99.90;;;;;;4081994;29;20051;-62
2023/08/20 03:34:24;;;;;;;8.98;6.93;;;19.40;99.90;;;;;;4081012;29;20048;-61
2023/08/20 03:36:25;;;;;;;7.47;6.75;;;19.40;99.90;;;;;;4080306;29;20480;-62
2023/08/20 03:38:26;;;;;;;8.05;7.22;;;19.40;99.90;;;;;;4081340;29;20472;-60
2023/08/20 03:40:28;;;;;;;15.38;7.70;;;19.50;99.90;;;;;;4082341;29;20039;-60
2023/08/20 03:42:30;;;;;;;10.35;7.82;;;19.50;99.90;;;;;;4081249;29;20385;-60
2023/08/20 03:44:31;;;;;;;7.43;6.68;;;19.50;99.90;;;;;;4081379;29;20089;-60
2023/08/20 03:46:32;;;;;;;8.30;7.53;;;19.50;99.90;;;;;;4081101;29;20123;-61
2023/08/20 03:48:33;;;;;;;7.82;7.13;;;19.60;99.90;;;;;;4081413;29;20138;-61
2023/08/20 03:50:35;;;;;;;10.32;7.88;;;19.60;99.90;;;;;;4081801;29;20536;-60
2023/08/20 03:52:36;;;;;;;9.80;7.90;;;19.70;99.90;;;;;;4080696;29;20508;-59
2023/08/20 03:54:37;;;;;;;11.38;7.28;;;19.70;99.90;;;;;;4081749;29;20039;-61
2023/08/20 03:56:38;;;;;;;10.00;7.70;;;19.80;99.90;;;;;;4070895;29;20505;-60
2023/08/20 03:58:39;;;;;;;8.27;7.22;;;19.90;99.90;;;;;;4066287;29;20032;-60
2023/08/20 04:00:40;;;;;;;11.52;7.70;;;20.10;99.90;;;;;;4073750;29;20043;-59
2023/08/20 04:02:41;;;;;;;8.23;7.43;;;20.30;99.90;;;;;;4082214;29;20127;-61
2023/08/20 04:04:42;;;;;;;9.02;7.07;;;20.50;99.90;;;;;;4079960;29;20511;-61
2023/08/20 04:06:43;;;;;;;8.63;7.72;;;20.70;99.90;;;;;;4078709;29;20370;-61
2023/08/20 04:08:45;;;;;;;8.80;7.63;;;20.90;99.90;;;;;;4068145;29;20124;-61
2023/08/20 04:10:46;;;;;;;8.38;7.38;;;21.00;99.90;;;;;;4066774;29;20048;-61
2023/08/20 04:12:47;;;;;;;8.60;7.60;;;21.10;99.90;;;;;;4074003;29;20031;-61
2023/08/20 04:14:48;;;;;;;9.55;7.63;;;21.10;99.90;;;;;;4077084;29;20051;-61
2023/08/20 04:16:49;;;;;;;11.27;7.43;;;21.10;99.90;;;;;;4074708;29;20032;-61
2023/08/20 04:18:51;;;;;;;9.88;7.53;;;21.20;99.90;;;;;;4080403;29;20047;-61
2023/08/20 04:20:52;;;;;;;9.93;7.25;;;21.40;99.90;;;;;;4081868;29;20031;-61
2023/08/20 04:22:54;;;;;;;7.55;6.78;;;21.60;99.90;;;;;;4080508;29;20028;-62
2023/08/20 04:24:55;;;;;;;8.93;7.80;;;21.90;99.90;;;;;;4081688;29;20082;-62
2023/08/20 04:26:56;;;;;;;8.40;7.50;;;22.00;99.90;;;;;;4077458;29;20501;-61
2023/08/20 04:28:58;;;;;;;9.00;7.05;;;22.30;99.90;;;;;;4066013;29;20036;-61
2023/08/20 04:31:00;;;;;;;8.85;7.22;;;22.50;99.90;;;;;;4064771;29;20095;-62
2023/08/20 04:33:01;;;;;;;10.00;6.72;;;22.70;99.90;;;;;;4065806;29;20051;-61
2023/08/20 04:35:03;;;;;;;9.65;6.28;;;23.10;99.90;;;;;;4064687;29;20036;-61
2023/08/20 04:37:04;;;;;;;11.90;7.15;;;23.40;99.90;;;;;;4066711;29;20028;-60
2023/08/20 04:39:05;;;;;;;9.95;6.80;;;23.70;99.90;;;;;;4064748;29;20039;-61
2023/08/20 04:41:06;;;;;;;12.43;7.60;;;23.80;99.90;;;;;;4065596;29;20048;-62
2023/08/20 04:43:07;;;;;;;9.00;6.72;;;24.00;99.90;;;;;;4064496;29;20116;-60
2023/08/20 04:45:10;;;;;;;10.73;6.50;;;24.10;99.90;;;;;;4065460;29;20080;-62
2023/08/20 04:47:15;;;;;;;8.75;5.85;;;24.40;99.90;;;;;;4065412;29;20044;-61
2023/08/20 04:49:16;;;;;;;11.48;6.00;;;24.60;99.90;;;;;;4071288;29;20036;-62
2023/08/20 04:51:17;;;;;;;7.78;6.30;;;24.70;99.90;;;;;;4069195;29;20044;-61
2023/08/20 04:53:18;;;;;;;8.18;5.53;;;25.10;99.90;;;;;;4071401;29;20036;-62
2023/08/20 04:55:19;;;;;;;8.18;5.55;;;25.30;99.90;;;;;;4081004;29;20055;-61
2023/08/20 04:57:20;;;;;;;6.47;5.88;;;25.80;99.90;;;;;;4079140;29;20471;-60
2023/08/20 04:59:22;;;;;;;8.07;5.32;;;26.10;99.90;;;;;;4078799;29;20135;-61
2023/08/20 05:01:23;;;;;;;5.95;5.38;;;26.30;99.90;;;;;;4069921;29;20121;-61
2023/08/20 05:03:25;;;;;;;7.68;5.38;;;26.50;99.90;;;;;;4065451;29;20055;-62
2023/08/20 05:05:26;;;;;;;5.70;5.10;;;26.90;99.90;;;;;;4064226;29;20552;-63
2023/08/20 05:07:27;;;;;;;5.90;5.30;;;27.00;99.90;;;;;;4066182;29;20073;-61
2023/08/20 05:09:28;;;;;;;10.80;6.20;;;27.20;99.90;;;;;;4065193;29;20100;-61
2023/08/20 05:11:32;;;;;;;7.05;5.43;;;27.40;99.90;;;;;;4065988;29;20051;-61
2023/08/20 05:13:33;;;;;;;8.18;5.70;;;27.70;99.90;;;;;;4077316;29;20036;-62
2023/08/20 05:15:35;;;;;;;6.97;5.47;;;28.00;99.90;;;;;;4078424;29;20052;-62
2023/08/20 05:17:36;;;;;;;7.00;5.32;;;28.30;99.90;;;;;;4074061;29;20047;-61
2023/08/20 05:19:37;;;;;;;6.95;5.47;;;28.60;99.90;;;;;;4073992;29;20055;-62
2023/08/20 05:21:38;;;;;;;5.72;4.63;;;28.70;99.90;;;;;;4069301;29;20083;-61
2023/08/20 05:23:40;;;;;;;8.00;4.80;;;29.00;99.90;;;;;;4070413;29;20035;-61
2023/08/20 05:25:41;;;;;;;6.07;5.45;;;29.30;99.90;;;;;;4065795;29;20115;-61
2023/08/20 05:27:42;;;;;;;7.63;5.07;;;29.50;99.90;;;;;;4075286;29;21050;-62
2023/08/20 05:29:44;;;;;;;6.00;5.28;;;29.80;99.90;;;;;;4074976;29;20039;-61
2023/08/20 05:31:45;;;;;;;5.25;4.30;;;30.00;99.90;;;;;;4093065;29;20043;-61
2023/08/20 05:33:46;;;;;;;5.68;5.18;;;30.20;99.90;;;;;;4069381;29;20484;-60
2023/08/20 05:35:47;;;;;;;6.80;4.82;;;30.50;99.90;;;;;;4065669;29;20100;-62
2023/08/20 05:37:48;;;;;;;5.00;4.43;;;30.60;99.90;;;;;;4074379;29;20127;-62
2023/08/20 05:39:49;;;;;;;4.63;4.32;;;30.80;99.90;;;;;;4078597;29;20547;-62
2023/08/20 05:41:50;;;;;;;4.30;3.90;;;30.90;99.90;;;;;;4077980;29;20479;-62
2023/08/20 05:43:51;;;;;;;9.60;6.65;;;31.00;99.50;;;;;;4065909;29;20044;-61
2023/08/20 05:45:53;;;;;;;7.70;4.93;;;31.20;98.90;;;;;;4064686;29;20036;-61
2023/08/20 05:47:54;;;;;;;9.70;5.80;;;31.20;98.70;;;;;;4063458;29;20052;-63
2023/08/20 05:49:55;;;;;;;4.88;4.35;;;31.00;98.50;;;;;;4070514;29;20186;-63
2023/08/20 05:51:56;;;;;;;19.63;8.68;;;30.70;98.40;;;;;;4064026;29;20032;-62
2023/08/20 05:53:57;;;;;;;12.02;6.25;;;30.80;98.30;;;;;;4062554;29;20112;-63
2023/08/20 05:55:58;;;;;;;6.22;4.15;;;30.90;98.10;;;;;;4063785;29;20087;-61
2023/08/20 05:58:00;;;;;;;4.70;4.00;;;31.00;97.90;;;;;;4063234;29;20044;-60
2023/08/20 06:00:01;;;;;;;9.70;6.00;;;31.10;97.80;;;;;;4063684;29;20107;-61
2023/08/20 06:02:02;;;;;;;13.02;6.70;;;31.60;97.60;;;;;;4074925;29;20086;-63
2023/08/20 06:04:04;;;;;;;8.07;5.72;;;31.60;96.80;;;;;;4077089;29;20052;-62
2023/08/20 06:06:05;;;;;;;7.57;4.28;;;31.50;96.80;;;;;;4065230;29;20517;-63
2023/08/20 06:08:06;;;;;;;4.47;4.00;;;31.40;96.80;;;;;;4067537;29;20055;-61
2023/08/20 06:10:08;;;;;;;6.75;4.75;;;31.70;96.60;;;;;;4062778;29;20100;-62
2023/08/20 06:12:09;;;;;;;7.32;4.25;;;32.00;96.20;;;;;;4063907;29;20398;-62
2023/08/20 06:14:10;;;;;;;5.10;3.90;;;32.20;95.70;;;;;;4062612;29;20041;-61
2023/08/20 06:16:11;;;;;;;8.07;4.22;;;32.30;95.40;;;;;;4063905;29;20044;-62
2023/08/20 06:18:12;;;;;;;4.60;3.35;;;32.10;95.40;;;;;;4063829;29;20040;-62
2023/08/20 06:20:13;;;;;;;4.28;3.88;;;31.90;95.30;;;;;;4064459;29;20032;-62
2023/08/20 06:22:14;;;;;;;5.40;3.63;;;31.80;95.30;;;;;;4063204;29;20477;-61
2023/08/20 06:24:16;;;;;;;8.23;4.10;;;31.70;95.20;;;;;;4064211;29;20036;-61
2023/08/20 06:26:17;;;;;;;24.48;13.48;;;31.70;95.10;;;;;;4063650;29;20095;-62
2023/08/20 06:28:18;;;;;;;6.75;4.53;;;31.80;95.10;;;;;;4063821;29;20036;-61
2023/08/20 06:30:19;;;;;;;6.20;4.47;;;31.50;95.00;;;;;;4069195;29;20028;-62
2023/08/20 06:32:20;;;;;;;7.80;3.75;;;31.80;95.00;;;;;;4076513;29;20469;-63
2023/08/20 06:34:21;;;;;;;5.72;3.40;;;31.90;94.50;;;;;;4064919;29;20506;-62
2023/08/20 06:36:22;;;;;;;4.18;3.55;;;31.30;94.50;;;;;;4063077;29;20450;-62
2023/08/20 06:38:23;;;;;;;6.53;3.33;;;31.50;94.60;;;;;;4065720;29;20072;-63
2023/08/20 06:40:25;;;;;;;4.85;3.95;;;31.90;94.40;;;;;;4066330;29;20032;-61
2023/08/20 06:42:26;;;;;;;5.25;3.63;;;31.80;94.50;;;;;;4067623;29;20095;-62
2023/08/20 06:44:27;;;;;;;5.25;3.95;;;31.70;94.50;;;;;;4066078;29;20126;-61
2023/08/20 06:46:28;;;;;;;4.07;3.55;;;31.80;94.40;;;;;;4067511;29;20044;-62
2023/08/20 06:48:29;;;;;;;5.57;4.00;;;32.00;94.30;;;;;;4065901;29;20060;-62
2023/08/20 06:50:30;;;;;;;5.65;4.18;;;32.00;94.30;;;;;;4067603;29;20111;-63
2023/08/20 06:52:31;;;;;;;5.68;4.40;;;32.30;94.10;;;;;;4065779;29;20032;-61
2023/08/20 06:54:33;;;;;;;5.05;3.97;;;32.50;93.80;;;;;;4066534;29;20032;-62
2023/08/20 06:56:34;;;;;;;6.90;3.92;;;32.30;93.90;;;;;;4066142;29;20496;-62
2023/08/20 06:58:40;;;;;;;6.40;3.95;;;31.80;94.10;;;;;;4066672;29;20036;-62
2023/08/20 07:00:41;;;;;;;4.43;4.03;;;31.60;94.20;;;;;;4065896;29;20390;-63
2023/08/20 07:02:42;;;;;;;5.88;4.78;;;31.70;94.30;;;;;;4065248;29;20040;-62
2023/08/20 07:04:43;;;;;;;5.47;4.35;;;31.50;94.30;;;;;;4066378;29;20052;-62
2023/08/20 07:06:44;;;;;;;4.68;4.18;;;31.30;94.40;;;;;;4065613;29;20040;-60
2023/08/20 07:08:45;;;;;;;8.20;3.95;;;31.00;94.60;;;;;;4066351;29;20056;-62
2023/08/20 07:10:46;;;;;;;5.22;3.92;;;30.70;94.80;;;;;;4065855;29;20182;-61
2023/08/20 07:12:48;;;;;;;5.40;4.25;;;30.50;95.20;;;;;;4066437;29;20040;-60
2023/08/20 07:14:49;;;;;;;7.00;4.00;;;30.80;95.10;;;;;;4065487;29;20044;-62
2023/08/20 07:16:50;;;;;;;7.18;3.95;;;30.70;95.00;;;;;;4066485;29;20489;-62
2023/08/20 07:18:52;;;;;;;3.95;3.53;;;30.50;95.10;;;;;;4064654;29;20044;-63
2023/08/20 07:20:55;;;;;;;5.40;4.22;;;30.70;95.00;;;;;;4066323;29;20087;-63
2023/08/20 07:22:56;;;;;;;4.15;3.75;;;30.90;95.10;;;;;;4064221;29;20087;-60
2023/08/20 07:24:57;;;;;;;5.45;4.05;;;31.20;94.80;;;;;;4066417;29;20048;-62
2023/08/20 07:27:03;;;;;;;4.88;3.60;;;31.60;94.30;;;;;;4065070;29;20438;-61
2023/08/20 07:29:04;;;;;;;4.35;3.95;;;31.50;94.30;;;;;;4067941;29;20111;-61
2023/08/20 07:31:06;;;;;;;6.53;3.92;;;31.50;94.40;;;;;;4076954;29;20043;-61
2023/08/20 07:33:07;;;;;;;4.63;4.18;;;31.60;94.30;;;;;;4095210;29;20043;-62
2023/08/20 07:35:09;;;;;;;4.63;4.18;;;31.90;94.20;;;;;;4079351;29;20091;-62
2023/08/20 07:37:10;;;;;;;6.32;3.70;;;32.10;94.00;;;;;;4080712;29;20431;-60
2023/08/20 07:39:12;;;;;;;4.70;3.47;;;32.10;94.00;;;;;;4077286;29;20027;-60
2023/08/20 07:41:13;;;;;;;8.30;3.47;;;32.20;93.80;;;;;;4064487;29;20036;-60
2023/08/20 07:43:14;;;;;;;8.27;5.45;;;32.10;93.80;;;;;;4066178;29;20032;-62
2023/08/20 07:45:15;;;;;;;5.45;4.00;;;32.10;93.80;;;;;;4079499;29;20103;-62
2023/08/20 07:47:16;;;;;;;9.85;3.60;;;32.20;93.70;;;;;;4081701;29;20040;-62
2023/08/20 07:49:17;;;;;;;7.20;4.00;;;32.50;93.60;;;;;;4079828;29;20114;-62
2023/08/20 07:51:18;;;;;;;7.43;4.05;;;32.70;93.30;;;;;;4080208;29;20403;-60
2023/08/20 07:53:19;;;;;;;14.10;4.00;;;32.60;93.40;;;;;;4065279;29;20047;-62
2023/08/20 07:55:21;;;;;;;5.32;3.35;;;32.60;93.50;;;;;;4066074;29;20036;-61
2023/08/20 07:57:23;;;;;;;5.10;4.10;;;32.70;93.40;;;;;;4064386;29;20044;-61
2023/08/20 07:59:24;;;;;;;7.72;3.75;;;32.80;93.40;;;;;;4065456;29;20182;-59
2023/08/20 08:01:25;;;;;;;4.97;3.67;;;32.80;93.50;;;;;;4065822;29;20040;-61
2023/08/20 08:03:27;;;;;;;6.57;4.70;;;32.90;93.20;;;;;;4075686;29;20100;-62
2023/08/20 08:05:28;;;;;;;7.88;4.32;;;32.90;93.10;;;;;;4071377;29;20044;-64
2023/08/20 08:07:29;;;;;;;5.20;4.32;;;32.10;93.20;;;;;;4064547;29;20862;-62
2023/08/20 08:09:31;;;;;;;5.43;3.97;;;31.90;93.60;;;;;;4065362;29;20470;-62
2023/08/20 08:11:32;;;;;;;8.82;4.05;;;31.50;93.70;;;;;;4065709;29;20142;-61
2023/08/20 08:13:33;;;;;;;6.60;4.38;;;31.10;94.00;;;;;;4076920;29;20098;-61
2023/08/20 08:15:35;;;;;;;5.32;3.97;;;31.30;94.10;;;;;;4069654;29;20556;-62
2023/08/20 08:17:36;;;;;;;6.47;3.75;;;31.20;94.10;;;;;;4066099;29;20044;-62
2023/08/20 08:19:37;;;;;;;5.95;4.47;;;31.20;94.00;;;;;;4063765;29;20079;-62
2023/08/20 08:21:38;;;;;;;6.35;4.25;;;31.20;94.00;;;;;;4065547;29;20092;-62
2023/08/20 08:23:40;;;;;;;5.05;4.05;;;31.10;94.00;;;;;;4054366;29;20567;-62
2023/08/20 08:25:41;;;;;;;5.13;4.65;;;31.10;94.10;;;;;;4049843;29;20040;-61
2023/08/20 08:27:42;;;;;;;5.60;4.45;;;31.20;94.10;;;;;;4050820;29;20128;-61
2023/08/20 08:29:44;;;;;;;6.25;4.43;;;31.10;94.20;;;;;;4066098;29;20036;-61
2023/08/20 08:31:45;;;;;;;8.43;4.13;;;31.50;94.20;;;;;;4066314;29;20052;-62
2023/08/20 08:33:47;;;;;;;5.28;4.28;;;31.80;94.00;;;;;;4069389;29;20040;-61
2023/08/20 08:35:48;;;;;;;8.32;4.10;;;32.00;93.70;;;;;;4074858;28;20170;-62
2023/08/20 08:37:49;;;;;;;6.20;4.50;;;32.00;93.50;;;;;;4080181;29;20397;-61
2023/08/20 08:39:50;;;;;;;5.97;4.45;;;31.70;93.60;;;;;;4078549;29;20040;-61
2023/08/20 08:41:58;;;;;;;4.50;4.07;;;31.30;93.80;;;;;;4076653;29;20040;-62
2023/08/20 08:43:59;;;;;;;5.18;4.07;;;31.10;94.00;;;;;;4067798;29;20044;-60
2023/08/20 08:46:03;;;;;;;4.05;3.70;;;31.20;93.90;;;;;;4065653;29;20083;-60
2023/08/20 08:48:04;;;;;;;6.90;4.18;;;31.50;93.70;;;;;;4075718;29;20378;-61
2023/08/20 08:50:07;;;;;;;5.75;3.55;;;31.70;93.50;;;;;;4078395;29;20039;-58
2023/08/20 08:52:10;;;;;;;10.75;4.47;;;31.80;93.30;;;;;;4081199;29;20023;-61
2023/08/20 08:54:13;;;;;;;3.75;2.90;;;31.40;93.30;;;;;;4079539;29;20091;-62
2023/08/20 08:56:14;;;;;;;4.63;3.67;;;31.30;93.30;;;;;;4075367;29;20187;-61
2023/08/20 08:58:15;;;;;;;6.88;4.07;;;31.30;93.20;;;;;;4063641;29;20096;-61
2023/08/20 09:00:17;;;;;;;7.20;3.50;;;31.20;93.10;;;;;;4068597;29;20441;-60
2023/08/20 09:02:18;;;;;;;8.25;3.30;;;31.50;93.00;;;;;;4079392;29;20027;-60
2023/08/20 09:04:20;;;;;;;5.90;3.28;;;31.50;92.80;;;;;;4069167;29;20641;-60
2023/08/20 09:06:21;;;;;;;4.18;2.88;;;31.50;92.70;;;;;;4070941;29;20190;-60
2023/08/20 09:08:25;;;;;;;4.70;3.40;;;31.40;92.60;;;;;;4073338;29;20040;-60
2023/08/20 09:10:27;;;;;;;4.30;3.85;;;31.60;92.50;;;;;;4078146;29;20071;-59
2023/08/20 09:12:33;;;;;;;3.45;3.15;;;31.60;92.30;;;;;;4075207;29;20382;-60
2023/08/20 09:14:34;;;;;;;4.72;3.65;;;31.50;92.20;;;;;;4070617;29;20508;-62
2023/08/20 09:16:36;;;;;;;6.63;3.20;;;31.50;92.10;;;;;;4076226;29;20051;-60
2023/08/20 09:18:41;;;;;;;3.97;2.45;;;31.50;91.90;;;;;;4067914;29;20044;-61
2023/08/20 09:20:42;;;;;;;5.85;3.30;;;31.30;90.90;;;;;;4064454;29;20100;-62
2023/08/20 09:22:49;;;;;;;4.68;3.17;;;31.40;91.20;;;;;;4064697;29;20064;-61
2023/08/20 09:24:55;;;;;;;4.07;2.97;;;31.50;90.60;;;;;;4063995;29;20024;-62
2023/08/20 09:27:00;;;;;;;5.75;2.72;;;31.40;90.10;;;;;;4064432;29;20080;-62
2023/08/20 09:29:03;;;;;;;4.50;2.80;;;31.70;90.20;;;;;;4063639;29;20115;-59
2023/08/20 09:31:04;;;;;;;5.35;3.00;;;32.00;89.60;;;;;;4065577;29;20091;-62
2023/08/20 09:33:10;;;;;;;3.78;2.90;;;31.90;89.90;;;;;;4070223;29;20087;-61
2023/08/20 09:35:18;;;;;;;4.85;3.00;;;31.60;90.00;;;;;;4075711;29;20103;-62
2023/08/20 09:37:24;;;;;;;6.28;2.92;;;31.60;90.10;;;;;;4063891;29;20036;-59
2023/08/20 09:39:25;;;;;;;4.32;3.05;;;31.60;90.10;;;;;;4067822;29;20039;-63
2023/08/20 09:41:26;;;;;;;3.10;2.90;;;31.80;90.20;;;;;;4063184;29;20036;-62
2023/08/20 09:43:29;;;;;;;3.78;2.58;;;31.50;89.60;;;;;;4064539;29;20039;-62
2023/08/20 09:45:30;;;;;;;7.43;2.92;;;31.50;90.00;;;;;;4066696;29;20039;-61
2023/08/20 09:47:36;;;;;;;2.85;2.65;;;31.40;89.80;;;;;;4072746;29;20572;-61
2023/08/20 09:49:41;;;;;;;5.57;2.97;;;31.50;89.80;;;;;;4077841;29;20043;-63
2023/08/20 09:51:43;;;;;;;3.78;2.60;;;31.80;89.00;;;;;;4071293;29;20040;-63
2023/08/20 09:54:12;;;;;;;3.50;2.88;;;31.80;89.40;;;;;;4063687;29;20032;-59
2023/08/20 09:56:29;;;;;;;4.75;2.97;;;31.70;88.80;;;;;;4064526;29;20099;-60
2023/08/20 09:58:31;;;;;;;3.38;3.17;;;31.60;88.20;;;;;;4063615;29;20035;-61
2023/08/20 10:00:32;;;;;;;4.88;2.70;;;31.60;88.90;;;;;;4067887;29;20174;-59
2023/08/20 10:02:34;;;;;;;6.22;3.00;;;31.70;88.70;;;;;;4063737;29;20040;-61
2023/08/20 10:04:35;;;;;;;4.88;3.00;;;31.90;88.40;;;;;;4063769;29;20068;-62
2023/08/20 10:06:37;;;;;;;4.53;3.03;;;31.90;88.30;;;;;;4072994;29;20370;-62
2023/08/20 10:08:38;;;;;;;4.93;2.60;;;32.10;88.80;;;;;;4079404;29;20051;-61
2023/08/20 10:10:39;;;;;;;6.03;3.75;;;32.10;89.10;;;;;;4065392;29;20087;-60
2023/08/20 10:12:41;;;;;;;5.10;3.53;;;32.10;89.20;;;;;;4065065;29;20040;-60
2023/08/20 10:14:43;;;;;;;4.80;3.30;;;32.10;89.60;;;;;;4067236;29;20533;-61
2023/08/20 10:16:45;;;;;;;4.90;3.10;;;31.80;89.80;;;;;;4066630;29;20048;-60
2023/08/20 10:18:47;;;;;;;4.85;2.90;;;31.60;90.00;;;;;;4068089;29;20099;-60
2023/08/20 10:20:51;;;;;;;4.00;3.03;;;31.60;90.00;;;;;;4073322;29;20035;-57
2023/08/20 10:22:52;;;;;;;4.40;3.55;;;31.70;89.90;;;;;;4067185;29;20076;-61
2023/08/20 10:24:54;;;;;;;6.40;3.70;;;31.60;90.00;;;;;;4076682;29;20048;-60
2023/08/20 10:27:08;;;;;;;5.70;3.63;;;31.60;90.00;;;;;;4083111;29;20035;-61
2023/08/20 10:29:38;;;;;;;5.22;3.25;;;31.60;89.80;;;;;;4082020;29;20173;-60
2023/08/20 10:31:47;;;;;;;5.22;3.35;;;31.60;89.60;;;;;;4083844;29;20508;-57
2023/08/20 10:33:54;;;;;;;3.10;2.90;;;31.60;89.80;;;;;;4081186;29;20036;-60
2023/08/20 10:35:55;;;;;;;4.18;3.63;;;31.60;90.00;;;;;;4080163;29;20043;-60